Time;durP1;ratioP1;P1;durP2;ratioP2;P2;SDS_P1;SDS_P2;PMS_P1;PMS_P2;Temp;Humidity;BMP_temperature;BMP_pressure;BME280_temperature;BME280_humidity;BME280_pressure;Samples;Min_cycle;Max_cycle;Signal;HPM_P1;HPM_P2
2022/06/06 00:01:53;;;;;;;5.60;4.20;;;15.20;99.90;;;;;;5097757;28;20451;-44
2022/06/06 00:04:20;;;;;;;5.43;4.37;;;15.10;99.90;;;;;;5099026;28;20299;-44
2022/06/06 00:06:47;;;;;;;3.90;3.60;;;15.20;99.90;;;;;;5098905;28;20715;-45
2022/06/06 00:09:14;;;;;;;3.57;3.23;;;15.20;99.90;;;;;;5099053;28;20412;-44
2022/06/06 00:11:41;;;;;;;4.10;3.70;;;15.20;99.90;;;;;;5098208;28;20415;-45
2022/06/06 00:14:08;;;;;;;4.10;3.70;;;15.20;99.90;;;;;;5097669;28;20435;-45
2022/06/06 00:16:35;;;;;;;6.00;3.77;;;15.10;99.90;;;;;;5098787;28;20491;-44
2022/06/06 00:19:02;;;;;;;4.63;4.10;;;15.10;99.90;;;;;;5099006;28;20421;-45
2022/06/06 00:21:27;;;;;;;4.20;3.70;;;15.10;99.90;;;;;;5097708;28;20438;-44
2022/06/06 00:23:58;;;;;;;4.43;3.60;;;15.10;99.90;;;;;;5099257;28;20531;-45
2022/06/06 00:26:26;;;;;;;4.10;3.43;;;15.10;99.90;;;;;;5097637;28;20500;-45
2022/06/06 00:28:52;;;;;;;4.10;3.70;;;15.10;99.90;;;;;;5097531;28;20473;-44
2022/06/06 00:36:47;;;;;;;4.27;3.97;;;15.10;99.90;;;;;;5098029;28;20462;-44
2022/06/06 00:39:14;;;;;;;5.13;3.70;;;15.10;99.90;;;;;;5097232;28;20835;-44
2022/06/06 00:41:46;;;;;;;5.33;3.70;;;15.10;99.90;;;;;;5097826;28;20533;-44
2022/06/06 00:44:14;;;;;;;4.17;3.77;;;15.10;99.90;;;;;;5097225;28;20462;-44
2022/06/06 00:46:50;;;;;;;4.70;3.90;;;15.00;99.90;;;;;;5096398;28;20423;-44
2022/06/06 00:49:26;;;;;;;3.80;3.50;;;15.10;99.90;;;;;;5096811;28;20682;-44
2022/06/06 00:51:53;;;;;;;5.07;4.33;;;15.10;99.90;;;;;;5095660;28;20442;-44
2022/06/06 00:54:19;;;;;;;6.50;3.97;;;15.00;99.90;;;;;;5097348;28;20760;-44
2022/06/06 00:56:51;;;;;;;5.60;4.00;;;15.10;99.90;;;;;;5095594;28;20487;-43
2022/06/06 00:59:20;;;;;;;4.70;4.30;;;15.00;99.90;;;;;;5096640;28;20183;-44
2022/06/06 01:01:48;;;;;;;4.70;4.30;;;15.10;99.90;;;;;;5097091;28;20426;-44
2022/06/06 01:04:15;;;;;;;4.07;3.67;;;15.00;99.90;;;;;;5096432;28;20712;-46
2022/06/06 01:06:44;;;;;;;4.33;3.93;;;14.90;99.90;;;;;;5094398;28;20432;-44
2022/06/06 01:09:11;;;;;;;4.10;3.70;;;14.90;99.90;;;;;;5095654;28;20411;-42
2022/06/06 01:11:41;;;;;;;4.53;4.13;;;14.90;99.90;;;;;;5096114;28;20705;-42
2022/06/06 01:14:09;;;;;;;4.60;4.10;;;14.90;99.90;;;;;;5096555;28;20816;-41
2022/06/06 01:20:05;;;;;;;4.17;3.87;;;14.80;99.90;;;;;;5096352;28;20394;-44
2022/06/06 01:22:42;;;;;;;6.57;4.67;;;14.80;99.90;;;;;;5096532;28;20453;-45
2022/06/06 01:25:27;;;;;;;4.03;3.73;;;14.80;99.90;;;;;;5096534;28;20425;-44
2022/06/06 01:28:21;;;;;;;5.30;4.10;;;14.80;99.90;;;;;;5096309;28;20458;-44
2022/06/06 01:30:54;;;;;;;4.97;4.57;;;14.80;99.90;;;;;;5096677;28;20426;-44
2022/06/06 01:33:19;;;;;;;5.77;3.93;;;14.80;99.90;;;;;;5096721;28;20418;-44
2022/06/06 01:35:47;;;;;;;4.07;3.77;;;14.80;99.90;;;;;;5096583;28;20427;-43
2022/06/06 01:38:16;;;;;;;4.07;3.70;;;14.70;99.90;;;;;;5096481;28;20249;-44
2022/06/06 01:40:41;;;;;;;6.50;4.07;;;14.70;99.90;;;;;;5094700;28;20516;-44
2022/06/06 01:43:12;;;;;;;5.47;4.43;;;14.70;99.90;;;;;;5096339;28;20561;-44
2022/06/06 01:45:43;;;;;;;4.80;4.40;;;14.70;99.90;;;;;;5095253;28;20187;-44
2022/06/06 01:48:16;;;;;;;4.50;4.10;;;14.70;99.90;;;;;;5095540;28;20862;-43
2022/06/06 01:50:43;;;;;;;4.67;4.20;;;14.60;99.90;;;;;;5096409;28;20426;-43
2022/06/06 01:53:15;;;;;;;7.27;4.87;;;14.60;99.90;;;;;;5099291;28;20523;-44
2022/06/06 01:55:42;;;;;;;5.07;4.67;;;14.60;99.90;;;;;;5099455;28;20419;-43
2022/06/06 01:58:13;;;;;;;4.93;4.33;;;14.50;99.90;;;;;;5101158;28;20414;-43
2022/06/06 02:00:39;;;;;;;5.67;5.03;;;14.60;99.90;;;;;;5100847;28;20477;-44
2022/06/06 02:03:05;;;;;;;4.73;4.33;;;14.60;99.90;;;;;;5100382;28;20778;-44
2022/06/06 02:05:31;;;;;;;5.23;4.73;;;14.50;99.90;;;;;;5100488;28;20510;-44
2022/06/06 02:07:57;;;;;;;5.43;4.97;;;14.50;99.90;;;;;;5100584;28;20521;-44
2022/06/06 02:10:23;;;;;;;5.50;5.00;;;14.50;99.90;;;;;;5099880;28;20182;-44
2022/06/06 02:12:49;;;;;;;10.73;5.80;;;14.60;99.90;;;;;;5099712;28;20735;-43
2022/06/06 02:15:17;;;;;;;5.00;4.60;;;14.60;99.90;;;;;;5098712;28;20431;-44
2022/06/06 02:17:43;;;;;;;4.83;4.43;;;14.50;99.90;;;;;;5099989;28;20432;-44
2022/06/06 02:20:11;;;;;;;4.60;4.20;;;14.50;99.90;;;;;;5100050;28;20501;-44
2022/06/06 02:22:37;;;;;;;6.17;5.63;;;14.50;99.90;;;;;;5100144;28;20181;-44
2022/06/06 02:25:04;;;;;;;5.17;4.57;;;14.50;99.90;;;;;;5100156;28;20552;-44
2022/06/06 02:27:30;;;;;;;5.30;4.80;;;14.40;99.90;;;;;;5100077;28;20486;-44
2022/06/06 02:29:55;;;;;;;5.70;5.13;;;14.40;99.90;;;;;;5098390;28;20805;-44
2022/06/06 02:32:21;;;;;;;6.67;4.90;;;14.40;99.90;;;;;;5099440;28;20214;-44
2022/06/06 02:34:47;;;;;;;6.30;5.80;;;14.40;99.90;;;;;;5098685;28;20212;-44
2022/06/06 02:37:13;;;;;;;5.83;5.23;;;14.30;99.90;;;;;;5097846;28;20430;-44
2022/06/06 02:39:38;;;;;;;5.57;5.07;;;14.30;99.90;;;;;;5097704;28;20532;-44
2022/06/06 02:42:04;;;;;;;5.67;5.20;;;14.30;99.90;;;;;;5097311;28;20551;-44
2022/06/06 02:44:30;;;;;;;6.27;5.67;;;14.30;99.90;;;;;;5097661;28;20263;-44
2022/06/06 02:46:56;;;;;;;5.80;5.30;;;14.30;99.90;;;;;;5097033;28;20443;-44
2022/06/06 02:49:21;;;;;;;6.73;5.30;;;14.30;99.90;;;;;;5098036;28;20240;-43
2022/06/06 02:51:47;;;;;;;10.10;6.57;;;14.40;99.90;;;;;;5098051;28;20563;-44
2022/06/06 02:54:13;;;;;;;6.97;6.27;;;14.30;99.90;;;;;;5098677;28;20215;-44
2022/06/06 02:56:38;;;;;;;5.83;4.97;;;14.40;99.90;;;;;;5099524;28;20207;-44
2022/06/06 02:59:08;;;;;;;6.83;5.40;;;14.40;99.90;;;;;;5099448;28;20410;-43
2022/06/06 03:01:34;;;;;;;5.90;5.40;;;14.40;99.90;;;;;;5099655;28;20218;-44
2022/06/06 03:03:59;;;;;;;6.40;5.90;;;14.40;99.90;;;;;;5098795;28;20466;-43
2022/06/06 03:06:33;;;;;;;7.70;5.87;;;14.30;99.90;;;;;;5099554;28;20423;-44
2022/06/06 03:09:08;;;;;;;8.20;5.60;;;14.30;99.90;;;;;;5099989;28;20186;-43
2022/06/06 03:11:55;;;;;;;5.43;4.93;;;14.30;99.90;;;;;;5099890;28;20438;-44
2022/06/06 03:14:29;;;;;;;5.20;4.70;;;14.30;99.90;;;;;;5099779;28;20491;-44
2022/06/06 03:23:25;;;;;;;6.00;5.50;;;14.30;99.90;;;;;;5098483;28;20644;-44
2022/06/06 03:25:59;;;;;;;7.47;5.97;;;14.40;99.90;;;;;;5098314;28;20805;-43
2022/06/06 03:28:44;;;;;;;5.73;5.23;;;14.30;99.90;;;;;;5098100;28;20581;-43
2022/06/06 03:31:16;;;;;;;5.80;5.30;;;14.30;99.90;;;;;;5098286;28;20427;-43
2022/06/06 03:33:59;;;;;;;5.93;5.10;;;14.30;99.90;;;;;;5098345;28;20426;-44
2022/06/06 03:37:10;;;;;;;6.13;5.63;;;14.20;99.90;;;;;;5099488;28;20430;-43
2022/06/06 03:39:47;;;;;;;5.63;5.10;;;14.20;99.90;;;;;;5090626;28;20423;-44
2022/06/06 03:42:28;;;;;;;6.30;4.80;;;14.30;99.90;;;;;;5098344;28;20439;-44
2022/06/06 03:45:02;;;;;;;9.30;5.27;;;14.30;99.90;;;;;;5098970;28;20454;-44
2022/06/06 03:47:46;;;;;;;6.07;5.47;;;14.30;99.90;;;;;;5098176;28;20546;-43
2022/06/06 03:50:17;;;;;;;5.33;4.83;;;14.30;99.90;;;;;;5098364;28;20419;-42
2022/06/06 03:52:57;;;;;;;4.97;4.57;;;14.40;99.90;;;;;;5097524;28;20518;-44
2022/06/06 03:56:03;;;;;;;5.27;4.80;;;14.40;99.90;;;;;;5097320;28;20435;-43
2022/06/06 03:58:31;;;;;;;5.40;4.90;;;14.50;99.90;;;;;;5068683;28;20422;-44
2022/06/06 04:01:00;;;;;;;5.87;5.27;;;14.50;99.90;;;;;;5096653;28;20411;-44
2022/06/06 04:03:26;;;;;;;5.40;4.90;;;14.60;99.90;;;;;;5097566;28;20433;-44
2022/06/06 04:05:52;;;;;;;5.37;4.87;;;14.60;99.90;;;;;;5096229;28;20689;-42
2022/06/06 04:08:18;;;;;;;5.70;5.20;;;14.70;99.90;;;;;;5097324;28;20427;-44
2022/06/06 04:11:24;;;;;;;5.40;4.90;;;14.70;99.90;;;;;;5097843;28;20813;-44
2022/06/06 04:14:08;;;;;;;5.80;5.30;;;14.70;99.90;;;;;;5097390;28;20272;-44
2022/06/06 04:16:45;;;;;;;8.50;4.67;;;14.80;99.90;;;;;;5098309;28;20501;-44
2022/06/06 04:19:26;;;;;;;6.40;5.67;;;14.80;99.90;;;;;;5098230;28;20758;-41
2022/06/06 04:22:03;;;;;;;6.47;4.87;;;14.90;99.90;;;;;;5096907;28;20441;-44
2022/06/06 04:24:41;;;;;;;5.77;5.23;;;14.90;99.90;;;;;;5097764;28;20445;-43
2022/06/06 04:27:16;;;;;;;7.10;4.90;;;15.00;99.90;;;;;;5097540;28;20433;-43
2022/06/06 04:30:03;;;;;;;6.90;4.53;;;15.00;99.90;;;;;;5096755;28;20786;-44
2022/06/06 04:32:34;;;;;;;5.50;5.00;;;15.10;99.90;;;;;;5096635;28;20743;-44
2022/06/06 04:35:15;;;;;;;5.53;5.03;;;15.20;99.90;;;;;;5097943;28;20888;-44
2022/06/06 04:38:05;;;;;;;4.93;4.53;;;15.30;99.90;;;;;;5098146;28;20419;-43
2022/06/06 04:41:04;;;;;;;4.63;4.23;;;15.40;99.90;;;;;;5096960;28;20414;-44
2022/06/06 04:44:01;;;;;;;4.97;4.57;;;15.50;99.90;;;;;;5097974;28;20723;-44
2022/06/06 04:46:45;;;;;;;6.37;4.90;;;15.60;99.90;;;;;;5098142;28;20418;-44
2022/06/06 04:49:11;;;;;;;5.30;4.90;;;15.80;99.90;;;;;;5079984;28;20423;-44
2022/06/06 04:51:40;;;;;;;5.70;5.20;;;15.90;99.90;;;;;;5097643;28;20849;-44
2022/06/06 04:54:08;;;;;;;5.93;5.43;;;16.00;99.90;;;;;;5096468;28;20502;-44
2022/06/06 04:56:34;;;;;;;5.80;5.07;;;16.20;99.90;;;;;;5096700;28;20496;-43
2022/06/06 04:59:00;;;;;;;5.37;4.97;;;16.40;99.90;;;;;;5097456;28;20477;-44
2022/06/06 05:01:26;;;;;;;5.40;4.90;;;16.50;99.90;;;;;;5096556;28;20893;-43
2022/06/06 05:03:52;;;;;;;5.60;5.07;;;16.70;99.90;;;;;;5097573;28;20518;-43
2022/06/06 05:06:39;;;;;;;4.53;4.13;;;16.90;99.90;;;;;;5097022;28;20185;-44
2022/06/06 05:09:45;;;;;;;5.00;4.30;;;17.10;99.90;;;;;;5097207;28;20411;-44
2022/06/06 05:12:17;;;;;;;4.47;4.07;;;17.20;99.90;;;;;;5096878;28;20473;-44
2022/06/06 05:15:01;;;;;;;4.50;4.20;;;17.30;99.90;;;;;;5096875;28;20970;-44
2022/06/06 05:17:48;;;;;;;6.63;4.77;;;17.30;99.90;;;;;;5097240;28;20558;-46
2022/06/06 05:20:38;;;;;;;6.93;4.37;;;17.40;99.90;;;;;;5096791;28;20430;-44
2022/06/06 05:23:07;;;;;;;4.70;4.30;;;17.30;99.90;;;;;;5097118;28;20438;-44
2022/06/06 05:25:40;;;;;;;5.00;4.50;;;17.40;99.90;;;;;;5096815;28;20422;-44
2022/06/06 05:28:17;;;;;;;4.80;4.40;;;17.40;99.90;;;;;;5078684;28;20497;-44
2022/06/06 05:30:56;;;;;;;5.13;4.70;;;17.40;99.90;;;;;;5095681;28;20423;-44
2022/06/06 05:33:47;;;;;;;5.10;4.60;;;17.30;99.90;;;;;;5096566;28;20518;-45
2022/06/06 05:36:21;;;;;;;5.90;4.43;;;17.30;99.90;;;;;;5095729;28;20436;-44
2022/06/06 05:38:54;;;;;;;6.30;4.70;;;17.40;99.90;;;;;;5096515;28;20783;-43
2022/06/06 05:41:38;;;;;;;5.37;4.90;;;17.40;99.90;;;;;;5094029;28;20996;-44
2022/06/06 05:44:21;;;;;;;5.30;4.90;;;17.40;99.90;;;;;;5095139;28;20536;-44
2022/06/06 05:47:01;;;;;;;5.83;5.07;;;17.50;99.90;;;;;;5094814;28;20446;-44
2022/06/06 05:49:46;;;;;;;5.67;5.07;;;17.60;99.90;;;;;;5077906;28;20428;-44
2022/06/06 05:52:31;;;;;;;5.37;4.97;;;17.80;99.90;;;;;;5095569;28;20731;-44
2022/06/06 05:55:06;;;;;;;5.90;4.90;;;18.00;99.90;;;;;;5094124;28;20463;-43
2022/06/06 05:57:55;;;;;;;5.80;4.63;;;18.10;99.70;;;;;;5096946;28;20426;-44
2022/06/06 06:00:41;;;;;;;4.87;4.47;;;18.40;99.90;;;;;;5085493;28;20426;-44
2022/06/06 06:03:22;;;;;;;8.60;4.00;;;18.70;99.60;;;;;;5093928;28;20461;-44
2022/06/06 06:06:05;;;;;;;6.80;4.50;;;19.10;98.60;;;;;;5094470;28;20410;-48
2022/06/06 06:09:16;;;;;;;6.00;4.13;;;19.30;97.40;;;;;;5093994;28;20423;-44
2022/06/06 06:12:03;;;;;;;4.60;4.20;;;19.20;97.40;;;;;;5085462;28;20447;-45
2022/06/06 06:14:51;;;;;;;5.77;5.27;;;19.40;97.70;;;;;;5094154;28;20478;-44
2022/06/06 06:17:21;;;;;;;4.90;4.50;;;19.40;97.10;;;;;;5094057;28;20427;-44
2022/06/06 06:20:01;;;;;;;5.00;4.40;;;19.40;96.90;;;;;;5094986;28;20920;-44
2022/06/06 06:22:29;;;;;;;4.43;4.13;;;19.50;97.10;;;;;;5074023;28;20407;-44
2022/06/06 06:24:57;;;;;;;6.07;5.47;;;19.60;96.80;;;;;;5073712;28;20512;-44
2022/06/06 06:27:23;;;;;;;7.60;4.90;;;19.70;96.40;;;;;;5073690;28;20480;-44
2022/06/06 06:29:49;;;;;;;7.43;5.57;;;19.80;96.50;;;;;;5075066;28;20457;-44
2022/06/06 06:32:36;;;;;;;7.40;6.13;;;19.80;96.00;;;;;;5075273;28;20520;-44
2022/06/06 06:35:12;;;;;;;5.43;4.93;;;19.90;96.20;;;;;;5075170;28;20491;-44
2022/06/06 06:37:56;;;;;;;5.20;4.70;;;20.00;95.80;;;;;;5075506;28;20883;-44
2022/06/06 06:40:43;;;;;;;5.50;5.10;;;20.00;95.90;;;;;;5078389;28;20864;-44
2022/06/06 06:43:30;;;;;;;5.00;4.60;;;20.20;95.90;;;;;;5079339;28;20419;-44
2022/06/06 06:46:00;;;;;;;4.97;4.50;;;20.30;95.50;;;;;;5078702;28;20417;-44
2022/06/06 06:48:36;;;;;;;5.23;4.37;;;20.40;95.70;;;;;;5078337;28;20422;-44
2022/06/06 06:51:17;;;;;;;6.20;4.50;;;20.40;94.90;;;;;;5088907;28;20438;-44
2022/06/06 06:53:43;;;;;;;5.27;4.77;;;20.40;95.10;;;;;;5098018;28;20523;-44
2022/06/06 06:56:18;;;;;;;5.63;5.13;;;20.60;94.30;;;;;;5098925;28;20431;-44
2022/06/06 06:58:46;;;;;;;4.93;4.53;;;20.50;93.50;;;;;;5097867;28;20176;-44
2022/06/06 07:01:17;;;;;;;4.57;4.20;;;20.70;94.00;;;;;;5099643;28;20435;-44
2022/06/06 07:10:14;;;;;;;5.53;5.00;;;21.30;93.20;;;;;;5098246;28;20485;-49
2022/06/06 07:12:40;;;;;;;5.47;4.97;;;21.50;92.80;;;;;;5098483;28;20549;-41
2022/06/06 07:15:16;;;;;;;4.73;4.33;;;21.50;92.50;;;;;;5098686;28;20553;-42
2022/06/06 07:17:49;;;;;;;5.63;5.13;;;21.70;92.00;;;;;;5098784;28;20184;-43
2022/06/06 07:20:16;;;;;;;4.90;4.50;;;21.90;91.10;;;;;;5097199;28;20916;-42
2022/06/06 07:23:01;;;;;;;4.70;4.30;;;22.10;91.00;;;;;;5097198;28;20767;-41
2022/06/06 07:25:38;;;;;;;5.20;4.70;;;22.20;90.70;;;;;;5098310;28;20405;-41
2022/06/06 07:28:10;;;;;;;5.23;4.73;;;22.20;90.60;;;;;;5097580;28;20544;-41
2022/06/06 07:30:41;;;;;;;5.17;4.67;;;22.20;90.80;;;;;;5098479;28;20420;-40
2022/06/06 07:33:15;;;;;;;5.83;4.60;;;22.30;90.70;;;;;;5096848;28;20525;-41
2022/06/06 07:36:06;;;;;;;5.30;4.77;;;22.20;90.70;;;;;;5097682;28;20436;-43
2022/06/06 07:38:40;;;;;;;5.13;4.30;;;22.30;90.70;;;;;;5097384;28;20425;-48
2022/06/06 07:41:21;;;;;;;8.10;5.10;;;22.60;90.30;;;;;;5098361;28;20418;-46
2022/06/06 07:44:11;;;;;;;4.93;4.50;;;22.80;89.60;;;;;;5098020;28;20947;-46
2022/06/06 07:46:40;;;;;;;5.27;4.87;;;22.80;89.40;;;;;;5098229;28;20823;-45
2022/06/06 07:49:19;;;;;;;5.40;4.90;;;22.80;88.20;;;;;;5097333;28;20427;-46
2022/06/06 07:52:33;;;;;;;4.87;4.43;;;22.70;90.00;;;;;;5097731;28;20928;-45
2022/06/06 07:55:13;;;;;;;4.90;4.50;;;23.10;89.10;;;;;;5072166;28;20528;-43
2022/06/06 07:58:01;;;;;;;5.70;5.20;;;23.50;85.80;;;;;;5097957;28;20435;-46
2022/06/06 08:00:28;;;;;;;6.67;5.60;;;23.60;85.50;;;;;;5096486;28;20426;-53
2022/06/06 08:03:23;;;;;;;9.73;8.00;;;23.70;86.50;;;;;;5097173;28;20431;-52
2022/06/06 08:06:10;;;;;;;5.23;4.73;;;23.40;86.60;;;;;;5098124;28;20411;-53
2022/06/06 08:08:40;;;;;;;5.87;4.90;;;23.10;83.60;;;;;;5097467;28;20426;-54
2022/06/06 08:11:34;;;;;;;4.90;4.50;;;22.70;84.00;;;;;;5098447;28;20462;-52
2022/06/06 08:14:28;;;;;;;4.97;4.23;;;22.50;83.40;;;;;;5096592;28;20463;-49
2022/06/06 08:17:17;;;;;;;11.03;4.57;;;22.40;85.30;;;;;;5098454;28;20432;-51
2022/06/06 08:20:03;;;;;;;3.83;3.53;;;22.50;85.00;;;;;;5097667;28;20473;-51
2022/06/06 08:22:30;;;;;;;3.67;3.40;;;22.80;81.30;;;;;;5087590;28;20915;-47
2022/06/06 08:24:59;;;;;;;3.50;3.20;;;23.20;81.50;;;;;;5085446;28;20495;-48
2022/06/06 08:27:27;;;;;;;3.47;3.10;;;23.50;79.40;;;;;;5091510;28;20428;-49
2022/06/06 08:29:52;;;;;;;3.73;3.33;;;23.20;77.20;;;;;;5098571;28;20435;-46
2022/06/06 08:32:18;;;;;;;5.00;3.63;;;23.20;78.10;;;;;;5098760;28;20709;-49
2022/06/06 08:34:44;;;;;;;3.70;3.40;;;23.10;76.40;;;;;;5098699;28;20210;-49
2022/06/06 08:37:29;;;;;;;3.60;3.30;;;23.20;76.40;;;;;;5098752;28;20430;-52
2022/06/06 08:40:07;;;;;;;3.57;3.03;;;23.30;75.70;;;;;;5097963;28;20400;-48
2022/06/06 08:43:00;;;;;;;2.80;2.60;;;23.20;74.10;;;;;;5098088;28;20419;-51
2022/06/06 08:46:03;;;;;;;3.57;3.27;;;23.10;75.90;;;;;;5098002;28;20412;-46
2022/06/06 08:48:46;;;;;;;3.40;3.10;;;23.40;73.40;;;;;;5098659;28;20416;-52
2022/06/06 08:51:44;;;;;;;3.83;3.00;;;23.40;70.90;;;;;;5096700;28;20554;-47
2022/06/06 08:54:37;;;;;;;3.77;3.00;;;23.70;71.00;;;;;;5096675;28;20464;-49
2022/06/06 08:57:12;;;;;;;2.93;2.63;;;24.20;70.20;;;;;;5097247;28;20419;-48
2022/06/06 08:59:41;;;;;;;4.50;2.90;;;24.50;69.10;;;;;;5097668;28;20411;-47
2022/06/06 09:02:43;;;;;;;5.43;2.73;;;25.00;68.90;;;;;;5097089;28;20416;-47
2022/06/06 09:05:46;;;;;;;3.97;2.80;;;25.50;65.40;;;;;;5096513;28;20505;-47
2022/06/06 09:08:24;;;;;;;4.37;2.90;;;26.00;63.20;;;;;;5095659;28;20416;-46
2022/06/06 09:11:08;;;;;;;3.57;3.23;;;26.20;61.70;;;;;;5079545;28;20405;-49
2022/06/06 09:13:49;;;;;;;3.00;2.80;;;25.90;60.10;;;;;;5076931;28;20474;-48
2022/06/06 09:16:36;;;;;;;2.97;2.70;;;25.80;61.20;;;;;;5074844;28;20872;-48
2022/06/06 09:19:26;;;;;;;3.13;2.83;;;25.80;60.70;;;;;;5076240;28;20802;-47
2022/06/06 09:22:16;;;;;;;3.23;2.90;;;25.40;60.70;;;;;;5092791;28;20431;-46
2022/06/06 09:25:04;;;;;;;3.03;2.73;;;25.10;60.80;;;;;;5097196;28;20403;-47
2022/06/06 09:28:15;;;;;;;3.43;2.90;;;24.90;61.60;;;;;;5095454;28;20431;-47
2022/06/06 09:30:49;;;;;;;3.63;2.70;;;24.90;61.80;;;;;;5071082;28;20428;-47
2022/06/06 09:33:39;;;;;;;3.83;3.37;;;25.40;61.50;;;;;;5097382;28;20457;-47
2022/06/06 09:36:23;;;;;;;4.63;3.20;;;25.90;59.70;;;;;;5096552;28;20491;-48
2022/06/06 09:39:30;;;;;;;4.47;2.93;;;26.30;59.50;;;;;;5095116;28;20738;-47
2022/06/06 09:42:15;;;;;;;2.80;2.60;;;26.50;59.10;;;;;;5091816;28;20461;-48
2022/06/06 09:45:06;;;;;;;4.57;3.63;;;26.60;58.40;;;;;;5095759;28;20388;-49
2022/06/06 09:47:37;;;;;;;3.57;3.27;;;26.40;58.40;;;;;;5096563;28;20427;-51
2022/06/06 09:50:14;;;;;;;4.03;3.63;;;25.90;58.70;;;;;;5097219;28;20408;-47
2022/06/06 09:53:02;;;;;;;3.30;3.00;;;25.90;59.30;;;;;;5096886;28;20420;-47
2022/06/06 09:59:03;;;;;;;3.43;3.23;;;26.60;58.10;;;;;;5078485;28;20438;-51
2022/06/06 10:01:38;;;;;;;3.73;2.90;;;26.60;56.80;;;;;;5096789;28;21046;-53
2022/06/06 10:04:38;;;;;;;3.63;3.33;;;26.20;56.90;;;;;;5094815;28;20387;-48
2022/06/06 10:07:10;;;;;;;3.33;3.03;;;25.70;57.60;;;;;;5069281;28;20394;-47
2022/06/06 10:09:47;;;;;;;3.47;3.17;;;25.80;58.30;;;;;;5091977;28;20410;-51
2022/06/06 10:12:41;;;;;;;3.50;3.20;;;26.00;58.30;;;;;;5076600;28;20414;-49
2022/06/06 10:15:16;;;;;;;3.17;2.90;;;26.10;57.40;;;;;;5080396;28;20835;-49
2022/06/06 10:18:04;;;;;;;3.07;2.70;;;26.20;57.70;;;;;;5078518;28;20465;-49
2022/06/06 10:20:46;;;;;;;3.40;2.93;;;26.20;57.30;;;;;;5084422;28;20829;-49
2022/06/06 10:23:18;;;;;;;2.93;2.60;;;26.40;56.30;;;;;;5099615;28;20880;-49
2022/06/06 10:25:56;;;;;;;3.40;2.73;;;26.70;56.40;;;;;;5098339;28;20895;-46
2022/06/06 10:28:50;;;;;;;3.00;2.80;;;27.40;55.80;;;;;;5098073;28;20486;-49
2022/06/06 10:31:23;;;;;;;3.20;3.00;;;27.70;54.40;;;;;;5100710;28;20429;-49
2022/06/06 10:34:20;;;;;;;3.20;2.90;;;27.80;54.00;;;;;;5081520;28;20493;-47
2022/06/06 10:37:13;;;;;;;2.60;2.40;;;27.60;53.70;;;;;;5100162;28;20455;-48
2022/06/06 10:39:38;;;;;;;3.13;2.60;;;27.40;53.90;;;;;;5099915;28;20424;-49
2022/06/06 10:42:04;;;;;;;2.77;2.57;;;27.20;52.60;;;;;;5099834;28;20525;-54
2022/06/06 10:44:51;;;;;;;2.83;2.63;;;26.90;53.10;;;;;;5101397;28;20175;-49
2022/06/06 10:47:38;;;;;;;3.77;2.90;;;26.50;53.10;;;;;;5098847;28;20275;-49
2022/06/06 10:50:22;;;;;;;3.00;2.70;;;26.80;54.30;;;;;;5098390;28;20403;-48
2022/06/06 10:53:19;;;;;;;3.60;2.50;;;27.50;53.80;;;;;;5097150;28;20408;-55
2022/06/06 10:56:42;;;;;;;2.50;2.30;;;28.10;51.00;;;;;;5097680;28;20417;-49
2022/06/06 10:59:28;;;;;;;4.40;3.30;;;27.90;51.90;;;;;;5015321;28;20523;-48
2022/06/06 11:02:18;;;;;;;3.20;2.90;;;27.30;50.90;;;;;;5015976;28;20424;-48
2022/06/06 11:05:03;;;;;;;3.37;2.63;;;26.80;51.90;;;;;;5079168;28;20505;-46
2022/06/06 11:07:48;;;;;;;3.50;3.20;;;26.60;52.50;;;;;;5098544;28;20425;-50
2022/06/06 11:10:28;;;;;;;3.00;2.70;;;26.30;52.70;;;;;;5097477;28;20404;-45
2022/06/06 11:13:18;;;;;;;3.50;2.60;;;26.30;52.60;;;;;;5098046;28;20756;-45
2022/06/06 11:16:22;;;;;;;3.20;2.93;;;26.20;52.50;;;;;;5098632;28;20407;-47
2022/06/06 11:19:02;;;;;;;3.23;3.00;;;26.20;53.20;;;;;;5097321;28;20425;-45
2022/06/06 11:22:10;;;;;;;3.50;2.67;;;26.30;52.70;;;;;;5094674;28;20459;-46
2022/06/06 11:24:52;;;;;;;4.43;2.97;;;26.40;53.00;;;;;;5085865;28;20848;-45
2022/06/06 11:27:21;;;;;;;3.47;3.17;;;26.40;52.50;;;;;;5085777;28;20436;-45
2022/06/06 11:30:28;;;;;;;3.00;2.70;;;26.40;52.80;;;;;;5088738;28;20521;-46
2022/06/06 11:33:18;;;;;;;3.23;2.80;;;26.10;53.00;;;;;;5016172;28;20552;-45
2022/06/06 11:36:32;;;;;;;4.80;3.13;;;25.70;52.40;;;;;;5090257;28;20425;-46
2022/06/06 11:39:02;;;;;;;2.80;2.60;;;25.40;52.20;;;;;;5030218;28;20880;-46
2022/06/06 11:41:56;;;;;;;3.43;2.90;;;25.20;53.20;;;;;;5074670;28;20509;-46
2022/06/06 11:44:53;;;;;;;4.50;3.47;;;25.20;53.80;;;;;;5085148;28;20685;-45
2022/06/06 11:47:37;;;;;;;3.37;3.07;;;25.30;53.90;;;;;;5086858;28;20921;-45
2022/06/06 11:50:31;;;;;;;3.50;2.93;;;25.20;54.00;;;;;;5087947;28;20408;-47
2022/06/06 11:53:38;;;;;;;2.70;2.50;;;25.10;54.30;;;;;;5072001;28;20426;-46
2022/06/06 11:56:44;;;;;;;2.87;2.67;;;24.70;54.40;;;;;;5086493;28;20478;-47
2022/06/06 11:59:43;;;;;;;3.47;2.73;;;24.50;55.20;;;;;;5067149;28;20415;-45
2022/06/06 12:02:46;;;;;;;3.10;2.80;;;24.10;55.00;;;;;;5088072;28;20426;-47
2022/06/06 12:05:33;;;;;;;3.20;2.90;;;24.10;55.20;;;;;;5087554;28;20444;-45
2022/06/06 12:08:30;;;;;;;3.00;2.73;;;24.10;55.20;;;;;;5088747;28;20532;-45
2022/06/06 12:11:19;;;;;;;2.53;2.33;;;24.10;55.30;;;;;;5087866;28;20433;-45
2022/06/06 12:13:58;;;;;;;3.20;2.90;;;24.30;55.10;;;;;;5085381;28;20458;-46
2022/06/06 12:17:06;;;;;;;2.80;2.60;;;25.30;55.10;;;;;;5086256;28;20515;-45
2022/06/06 12:19:38;;;;;;;2.53;2.20;;;26.80;52.80;;;;;;5070923;28;20732;-45
2022/06/06 12:22:20;;;;;;;2.77;2.53;;;28.60;50.40;;;;;;5086253;28;20517;-46
2022/06/06 12:25:21;;;;;;;2.73;2.53;;;30.50;48.10;;;;;;5086702;28;20406;-45
2022/06/06 12:28:17;;;;;;;3.47;2.90;;;31.90;46.50;;;;;;5085591;28;20885;-46
2022/06/06 12:31:02;;;;;;;2.70;2.50;;;33.30;43.70;;;;;;5086079;28;20413;-47
2022/06/06 12:33:33;;;;;;;2.73;2.53;;;34.40;41.20;;;;;;5086909;28;20461;-46
2022/06/06 12:36:06;;;;;;;5.53;2.87;;;34.40;39.80;;;;;;5084134;28;20417;-46
2022/06/06 12:39:06;;;;;;;4.13;2.63;;;34.40;39.30;;;;;;5087106;28;20580;-46
2022/06/06 12:41:43;;;;;;;2.63;2.43;;;33.90;38.90;;;;;;5085462;28;20535;-49
2022/06/06 12:44:31;;;;;;;3.93;2.70;;;33.70;39.30;;;;;;5086459;28;20505;-46
2022/06/06 12:47:06;;;;;;;3.53;2.80;;;34.20;37.80;;;;;;5084460;28;20404;-50
2022/06/06 12:49:56;;;;;;;2.87;2.43;;;34.10;37.10;;;;;;5082523;28;20425;-47
2022/06/06 12:52:47;;;;;;;2.33;2.13;;;34.10;37.00;;;;;;5082267;28;20424;-46
2022/06/06 12:58:51;;;;;;;4.43;2.70;;;34.50;36.70;;;;;;5058965;28;20743;-46
2022/06/06 13:01:50;;;;;;;2.60;2.40;;;32.40;37.10;;;;;;5085290;28;20809;-45
2022/06/06 13:04:34;;;;;;;3.10;2.80;;;30.70;39.00;;;;;;5083881;28;20427;-47
2022/06/06 13:07:17;;;;;;;2.80;2.40;;;29.10;41.10;;;;;;5083827;28;20406;-50
2022/06/06 13:09:50;;;;;;;3.07;2.87;;;27.60;43.60;;;;;;5083754;28;20429;-49
2022/06/06 13:12:21;;;;;;;3.83;2.77;;;27.00;44.60;;;;;;5087010;28;20437;-45
2022/06/06 13:15:29;;;;;;;3.17;2.83;;;26.60;45.30;;;;;;5085778;28;20462;-46
2022/06/06 13:18:32;;;;;;;4.57;2.93;;;26.10;46.10;;;;;;5084613;28;20425;-46
2022/06/06 13:21:14;;;;;;;3.63;3.33;;;25.60;47.00;;;;;;5084025;28;20865;-46
2022/06/06 13:23:53;;;;;;;2.73;2.53;;;24.90;47.80;;;;;;5085154;28;20408;-46
2022/06/06 13:26:48;;;;;;;3.17;2.87;;;24.70;48.10;;;;;;5069690;28;20824;-44
2022/06/06 13:29:31;;;;;;;4.03;3.10;;;24.30;49.00;;;;;;5068770;28;20782;-45
2022/06/06 13:32:17;;;;;;;3.60;3.30;;;24.00;49.70;;;;;;5085233;28;20435;-47
2022/06/06 13:34:58;;;;;;;4.00;2.97;;;23.90;50.50;;;;;;5082746;28;20455;-45
2022/06/06 13:37:30;;;;;;;3.87;3.47;;;23.80;50.70;;;;;;5084957;28;20429;-47
2022/06/06 13:39:59;;;;;;;3.00;2.70;;;23.70;51.20;;;;;;5083388;28;20438;-46
2022/06/06 13:42:44;;;;;;;3.40;3.20;;;23.60;51.40;;;;;;5085806;28;20467;-43
2022/06/06 13:45:25;;;;;;;3.30;3.00;;;23.50;51.80;;;;;;5084430;28;20854;-44
2022/06/06 13:47:56;;;;;;;3.97;2.87;;;23.60;51.80;;;;;;5083627;28;20523;-44
2022/06/06 13:50:49;;;;;;;3.67;3.37;;;23.60;52.40;;;;;;5085353;28;20483;-46
2022/06/06 13:53:36;;;;;;;3.70;3.40;;;23.80;52.30;;;;;;5084447;28;20428;-45
2022/06/06 13:56:31;;;;;;;4.13;3.73;;;23.80;52.30;;;;;;5083278;28;20445;-44
2022/06/06 13:59:19;;;;;;;3.83;3.53;;;23.90;52.70;;;;;;5085063;28;20488;-44
2022/06/06 14:02:20;;;;;;;3.90;3.53;;;24.10;53.00;;;;;;5083576;28;20823;-44
2022/06/06 14:05:04;;;;;;;3.27;3.00;;;24.20;52.60;;;;;;5084897;28;20438;-44
2022/06/06 14:08:09;;;;;;;3.37;3.10;;;24.40;52.80;;;;;;5085574;28;20718;-47
2022/06/06 14:10:53;;;;;;;3.47;3.17;;;24.50;52.50;;;;;;5083937;28;20706;-47
2022/06/06 14:13:38;;;;;;;3.00;2.80;;;24.60;52.40;;;;;;5096335;28;20413;-45
2022/06/06 14:16:21;;;;;;;3.83;3.53;;;24.70;52.50;;;;;;5096499;28;20424;-45
2022/06/06 14:18:48;;;;;;;3.70;3.40;;;25.00;52.20;;;;;;5088955;28;20444;-44